Time;durP1;ratioP1;P1;durP2;ratioP2;P2;SDS_P1;SDS_P2;PMS_P1;PMS_P2;Temp;Humidity;BMP_temperature;BMP_pressure;BME280_temperature;BME280_humidity;BME280_pressure;Samples;Min_cycle;Max_cycle;Signal;HPM_P1;HPM_P2
2021/12/05 00:21:07;;;;;;;38.90;34.60;;;;;;;0.96;62.05;96456.54;104001;1351;23196;-58
2021/12/05 00:23:47;;;;;;;36.00;32.10;;;;;;;0.93;61.97;96455.02;103980;1351;22965;-60
2021/12/05 00:26:21;;;;;;;36.10;29.60;;;;;;;0.92;62.23;96450.63;103992;1351;23535;-59
2021/12/05 00:29:16;;;;;;;32.60;29.10;;;;;;;0.93;61.98;96452.73;103856;1351;138458;-59
2021/12/05 00:37:50;;;;;;;31.80;28.20;;;;;;;0.95;61.59;96451.89;103893;1351;22546;-60
2021/12/05 00:40:35;;;;;;;34.10;27.70;;;;;;;0.98;61.86;96453.37;103979;1351;22539;-60
2021/12/05 00:43:14;;;;;;;31.60;27.40;;;;;;;1.03;61.83;96466.12;103951;1345;22444;-60
2021/12/05 01:02:37;;;;;;;35.00;30.80;;;;;;;1.07;61.25;96470.77;103827;1351;22208;-60
2021/12/05 01:11:02;;;;;;;32.50;29.10;;;;;;;1.06;61.11;96466.75;103944;1352;22353;-58
2021/12/05 01:13:39;;;;;;;33.20;29.70;;;;;;;1.11;61.19;96463.11;103918;1351;22328;-60
2021/12/05 01:16:18;;;;;;;34.70;28.10;;;;;;;1.17;61.23;96470.08;103774;1354;22330;-60
2021/12/05 01:18:47;;;;;;;31.70;28.30;;;;;;;1.19;61.11;96471.20;103918;1354;23076;-60
2021/12/05 01:21:23;;;;;;;41.70;34.20;;;;;;;1.21;61.23;96477.71;103876;1353;23073;-61
2021/12/05 01:24:18;;;;;;;51.00;39.90;;;;;;;1.22;61.10;96483.59;103926;1354;23191;-60
2021/12/05 01:26:58;;;;;;;40.90;36.70;;;;;;;1.24;61.11;96483.96;103930;1354;22997;-60
2021/12/05 01:29:37;;;;;;;35.40;31.70;;;;;;;1.25;60.79;96481.25;103904;1353;22406;-59
2021/12/05 01:36:12;;;;;;;30.00;26.70;;;;;;;1.22;60.68;96469.53;103681;1354;22317;-61
2021/12/05 01:59:38;;;;;;;32.70;29.00;;;;;;;1.11;60.48;96481.20;103555;1354;23191;-59
2021/12/05 02:07:59;;;;;;;27.60;23.60;;;;;;;0.97;60.84;96480.52;103807;1354;22508;-59
2021/12/05 02:16:33;;;;;;;22.90;20.50;;;;;;;1.11;61.10;96474.24;103937;1353;22234;-60
2021/12/05 02:39:15;;;;;;;20.20;18.00;;;;;;;1.46;61.47;96476.94;103937;1354;22406;-59
2021/12/05 02:41:39;;;;;;;18.50;16.60;;;;;;;1.44;61.53;96482.63;103785;1354;22442;-59
2021/12/05 02:44:04;;;;;;;20.80;18.60;;;;;;;1.40;61.59;96484.88;103862;1354;22329;-59
2021/12/05 02:46:32;;;;;;;20.50;17.80;;;;;;;1.38;61.72;96481.12;103913;1354;22360;-60
2021/12/05 02:49:04;;;;;;;19.00;16.40;;;;;;;1.34;62.05;96480.62;103964;1352;22388;-60
2021/12/05 02:51:33;;;;;;;18.60;15.60;;;;;;;1.33;61.97;96482.64;103910;1353;23263;-60
2021/12/05 02:54:15;;;;;;;18.20;16.10;;;;;;;1.33;62.34;96480.84;103972;1352;22518;-60
2021/12/05 02:56:48;;;;;;;18.60;16.70;;;;;;;1.31;62.66;96478.14;103925;1354;22522;-60
2021/12/05 03:02:02;;;;;;;19.30;17.30;;;;;;;1.21;63.19;96484.02;103887;1354;22529;-60
2021/12/05 03:04:33;;;;;;;22.60;20.40;;;;;;;1.12;63.17;96484.44;103896;1354;22378;-59
2021/12/05 03:07:05;;;;;;;21.70;19.20;;;;;;;1.09;63.45;96488.53;103943;1354;22450;-59
2021/12/05 03:09:35;;;;;;;23.70;21.20;;;;;;;1.10;63.54;96486.41;103883;1353;22323;-59
2021/12/05 03:12:04;;;;;;;25.30;22.60;;;;;;;1.10;64.01;96477.49;103916;1354;22455;-60
2021/12/05 03:14:32;;;;;;;26.30;23.60;;;;;;;1.07;64.59;96476.71;103940;1352;22301;-59
2021/12/05 03:17:00;;;;;;;24.70;22.20;;;;;;;1.03;64.47;96471.21;103956;1353;22351;-59
2021/12/05 03:19:28;;;;;;;28.00;24.80;;;;;;;1.00;64.88;96472.66;103952;1353;23142;-59
2021/12/05 03:21:58;;;;;;;28.10;25.20;;;;;;;0.96;65.10;96468.12;103908;1353;22430;-59
2021/12/05 03:24:26;;;;;;;25.20;22.60;;;;;;;0.91;65.30;96469.18;103892;1353;22419;-60
2021/12/05 03:26:54;;;;;;;25.40;22.70;;;;;;;0.86;65.58;96464.50;103869;1354;23186;-59
2021/12/05 03:29:23;;;;;;;24.50;22.00;;;;;;;0.87;65.67;96463.05;103956;1353;23047;-60
2021/12/05 03:31:53;;;;;;;26.10;23.60;;;;;;;0.86;66.24;96463.27;103947;1354;22437;-59
2021/12/05 03:34:23;;;;;;;25.90;23.20;;;;;;;0.82;66.54;96468.96;103933;1354;22335;-60
2021/12/05 03:36:56;;;;;;;30.00;27.00;;;;;;;0.79;67.05;96463.77;103788;1354;23165;-60
2021/12/05 03:39:27;;;;;;;28.20;25.50;;;;;;;0.74;66.70;96459.98;103926;1354;22319;-59
2021/12/05 03:41:57;;;;;;;28.80;26.00;;;;;;;0.74;66.91;96458.29;103935;1353;22376;-60
2021/12/05 03:44:30;;;;;;;27.30;24.50;;;;;;;0.73;66.77;96463.13;103904;1354;22284;-59
2021/12/05 03:47:00;;;;;;;26.00;23.40;;;;;;;0.74;66.93;96457.33;103873;1354;22297;-59
2021/12/05 03:49:30;;;;;;;25.60;23.00;;;;;;;0.79;67.00;96458.20;103930;1353;22554;-58
2021/12/05 03:52:03;;;;;;;27.60;24.90;;;;;;;0.77;67.38;96463.30;103891;1354;23233;-59
2021/12/05 03:54:32;;;;;;;26.00;23.30;;;;;;;0.76;67.31;96459.06;103899;1354;22415;-58
2021/12/05 03:57:02;;;;;;;26.50;23.80;;;;;;;0.74;67.49;96461.04;103886;1354;22300;-59
2021/12/05 03:59:32;;;;;;;27.60;24.70;;;;;;;0.73;67.82;96465.54;103862;1353;22601;-58
2021/12/05 04:02:03;;;;;;;29.30;26.40;;;;;;;0.70;67.71;96467.67;103907;1354;23138;-58
2021/12/05 04:04:32;;;;;;;29.70;26.60;;;;;;;0.63;67.67;96468.92;103942;1353;23061;-59
2021/12/05 04:07:01;;;;;;;25.90;23.20;;;;;;;0.60;67.82;96465.38;103933;1353;23095;-59
2021/12/05 04:09:31;;;;;;;26.40;23.60;;;;;;;0.60;68.09;96462.77;103879;1354;22369;-59
2021/12/05 04:12:02;;;;;;;26.30;23.70;;;;;;;0.60;68.19;96465.10;103953;1354;22278;-59
2021/12/05 04:14:45;;;;;;;30.10;27.00;;;;;;;0.59;68.46;96466.17;103879;1354;22314;-58
2021/12/05 04:17:17;;;;;;;29.20;26.00;;;;;;;0.58;68.43;96466.02;103934;1353;22357;-59
2021/12/05 04:19:45;;;;;;;29.40;26.70;;;;;;;0.56;68.89;96466.77;103876;1353;22439;-60
2021/12/05 04:22:14;;;;;;;25.90;23.40;;;;;;;0.54;68.89;96469.42;103935;1354;22661;-59
2021/12/05 04:24:44;;;;;;;26.80;24.20;;;;;;;0.49;69.65;96470.07;103961;1353;23321;-60
2021/12/05 04:27:17;;;;;;;25.20;22.70;;;;;;;0.41;69.93;96467.80;103927;1353;22571;-58
2021/12/05 04:29:46;;;;;;;25.80;23.30;;;;;;;0.34;69.84;96470.83;103929;1353;22332;-58
2021/12/05 04:32:15;;;;;;;27.20;24.70;;;;;;;0.31;70.17;96468.46;103911;1353;22271;-58
2021/12/05 04:34:43;;;;;;;30.50;27.40;;;;;;;0.26;70.06;96469.16;103875;1353;22366;-59
2021/12/05 04:37:12;;;;;;;29.00;26.10;;;;;;;0.20;69.91;96464.88;103951;1353;22427;-59
2021/12/05 04:39:40;;;;;;;29.20;26.20;;;;;;;0.13;70.24;96469.01;103927;1354;22511;-59
2021/12/05 04:42:09;;;;;;;30.80;27.80;;;;;;;0.08;70.55;96470.98;103967;1353;22422;-57
2021/12/05 04:44:37;;;;;;;29.30;26.40;;;;;;;0.05;70.24;96470.72;103925;1353;22646;-59
2021/12/05 04:47:05;;;;;;;29.60;26.40;;;;;;;0.04;70.74;96470.88;103957;1354;22372;-59
2021/12/05 04:49:34;;;;;;;32.00;28.70;;;;;;;0.02;70.56;96473.98;103926;1353;22697;-58
2021/12/05 04:52:03;;;;;;;30.50;27.40;;;;;;;-0.04;70.87;96469.50;103913;1354;23203;-59
2021/12/05 04:54:32;;;;;;;30.00;27.10;;;;;;;-0.10;71.61;96473.52;103954;1352;23054;-58
2021/12/05 04:57:00;;;;;;;30.30;27.20;;;;;;;-0.18;71.35;96478.92;103899;1354;22513;-58
2021/12/05 04:59:36;;;;;;;28.10;25.10;;;;;;;-0.22;71.82;96482.36;103860;1354;22302;-58
2021/12/05 05:02:07;;;;;;;26.80;24.20;;;;;;;-0.26;72.04;96489.55;103884;1354;22931;-58
2021/12/05 05:04:45;;;;;;;30.40;27.40;;;;;;;-0.31;72.16;96492.20;103928;1352;24049;-58
2021/12/05 05:07:24;;;;;;;30.80;27.60;;;;;;;-0.33;72.31;96495.75;103940;1353;23047;-58
2021/12/05 05:09:56;;;;;;;32.70;29.50;;;;;;;-0.37;72.22;96490.14;103925;1352;22429;-58
2021/12/05 05:12:25;;;;;;;29.80;26.80;;;;;;;-0.39;72.30;96492.61;103937;1353;22375;-58
2021/12/05 05:14:54;;;;;;;27.70;25.00;;;;;;;-0.39;72.25;96490.18;103945;1353;22540;-60
2021/12/05 05:17:23;;;;;;;26.50;23.70;;;;;;;-0.36;72.22;96486.44;103960;1352;22393;-58
2021/12/05 05:19:56;;;;;;;26.40;23.80;;;;;;;-0.31;72.23;96485.21;103937;1352;22477;-58
2021/12/05 05:22:38;;;;;;;29.00;26.20;;;;;;;-0.27;72.10;96486.55;103945;1353;22376;-59
2021/12/05 05:44:27;;;;;;;27.90;25.10;;;;;;;-0.33;73.48;96508.77;103936;1354;22365;-57
2021/12/05 05:49:50;;;;;;;26.60;24.00;;;;;;;-0.30;74.03;96510.99;103882;1354;23144;-60
2021/12/05 05:52:19;;;;;;;28.00;25.40;;;;;;;-0.27;73.63;96509.73;103961;1353;22967;-59
2021/12/05 05:54:49;;;;;;;27.60;25.00;;;;;;;-0.28;73.92;96506.02;103959;1354;22314;-60
2021/12/05 05:57:26;;;;;;;28.90;26.00;;;;;;;-0.27;73.88;96509.67;103976;1354;23181;-58
2021/12/05 06:05:16;;;;;;;24.90;22.40;;;;;;;-0.20;73.92;96514.83;103945;1354;22396;-58
2021/12/05 06:07:46;;;;;;;26.40;23.80;;;;;;;-0.17;74.22;96518.16;103944;1354;22325;-59
2021/12/05 06:10:20;;;;;;;29.70;27.00;;;;;;;-0.19;74.19;96521.55;103927;1352;23206;-59
2021/12/05 06:12:48;;;;;;;;;;;;;;;-0.19;73.94;96523.25;103960;1352;22636;-59
2021/12/05 06:15:18;;;;;;;;;;;;;;;-0.23;74.10;96522.39;103990;1352;23094;-60
2021/12/05 06:17:46;;;;;;;;;;;;;;;-0.30;74.25;96520.58;103945;1354;22636;-60
2021/12/05 06:20:16;;;;;;;;;;;;;;;-0.31;74.29;96520.95;103968;1354;22704;-59
2021/12/05 06:22:45;;;;;;;;;;;;;;;-0.29;74.54;96530.38;103975;1354;22770;-60
2021/12/05 06:25:19;;;;;;;;;;;;;;;-0.26;74.49;96528.70;103945;1354;22618;-58
2021/12/05 06:27:48;;;;;;;;;;;;;;;-0.22;74.33;96529.06;103942;1354;22628;-60
2021/12/05 06:30:26;;;;;;;;;;;;;;;-0.19;74.42;96528.48;103954;1354;22815;-60
2021/12/05 06:48:41;;;;;;;;;;;;;;;-0.22;74.93;96551.57;103978;1352;22566;-60
2021/12/05 06:51:13;;;;;;;;;;;;;;;-0.21;74.81;96553.20;103972;1352;23198;-60
2021/12/05 06:53:41;;;;;;;;;;;;;;;-0.18;75.28;96560.30;103962;1354;23388;-59
2021/12/05 06:56:09;;;;;;;;;;;;;;;-0.17;74.94;96564.13;103975;1352;23288;-59
2021/12/05 06:58:37;;;;;;;;;;;;;;;-0.13;74.87;96568.16;103968;1354;22755;-59
2021/12/05 07:01:06;;;;;;;;;;;;;;;-0.09;75.12;96561.70;103968;1354;23228;-59
2021/12/05 07:03:36;;;;;;;;;;;;;;;-0.06;74.91;96568.06;103964;1354;22472;-59
2021/12/05 07:06:08;;;;;;;;;;;;;;;-0.06;74.96;96573.36;103984;1353;23396;-60
2021/12/05 07:08:39;;;;;;;;;;;;;;;-0.05;75.22;96580.30;103934;1354;22730;-60
2021/12/05 07:11:21;;;;;;;;;;;;;;;-0.06;75.03;96582.55;103954;1353;22696;-59
2021/12/05 07:21:45;;;;;;;;;;;;;;;-0.03;75.28;96592.32;103981;1353;23398;-60
2021/12/05 07:24:33;;;;;;;;;;;;;;;0.06;75.20;96594.98;103966;1354;22520;-60
2021/12/05 07:40:17;;;;;;;;;;;;;;;0.15;75.17;96596.37;103965;1354;22666;-60
2021/12/05 07:40:56;;;;;;;;;;;;;;;0.23;75.83;96594.46;103978;1352;22602;-59
2021/12/05 07:43:24;;;;;;;;;;;;;;;0.25;75.99;96590.39;103955;1353;22812;-58
2021/12/05 07:45:56;;;;;;;;;;;;;;;0.24;75.97;96588.22;103992;1354;23382;-59
2021/12/05 07:48:29;;;;;;;;;;;;;;;0.25;75.84;96583.81;103965;1354;23437;-58
2021/12/05 07:51:10;;;;;;;;;;;;;;;0.28;75.67;96591.45;103968;1354;22631;-58
2021/12/05 07:56:23;;;;;;;;;;;;;;;0.46;75.63;96586.78;103981;1353;22668;-58
2021/12/05 07:59:00;;;;;;;;;;;;;;;0.55;75.55;96585.61;103959;1354;22784;-59
2021/12/05 08:15:28;;;;;;;;;;;;;;;0.61;75.79;96591.39;103972;1354;23391;-59
2021/12/05 08:17:58;;;;;;;;;;;;;;;0.67;75.89;96597.27;103972;1353;22854;-59
2021/12/05 08:20:28;;;;;;;;;;;;;;;0.71;75.72;96600.77;103968;1353;23776;-59
2021/12/05 08:22:57;;;;;;;;;;;;;;;0.78;75.68;96602.34;103959;1353;22499;-58
2021/12/05 08:25:28;;;;;;;;;;;;;;;0.83;75.97;96601.75;103954;1354;22585;-59
2021/12/05 08:28:08;;;;;;;;;;;;;;;0.82;76.04;96602.81;103953;1354;22737;-60
2021/12/05 08:30:37;;;;;;;;;;;;;;;0.78;75.95;96611.94;103966;1353;22646;-60
2021/12/05 08:45:06;;;;;;;;;;;;;;;0.88;76.05;96627.84;103982;1354;22731;-61
2021/12/05 09:23:21;;;;;;;;;;;;;;;1.01;76.58;96631.90;103920;1354;22609;-60
2021/12/05 09:28:51;;;;;;;;;;;;;;;1.17;76.55;96633.83;103971;1354;22670;-59
2021/12/05 09:38:28;;;;;;;;;;;;;;;1.22;76.60;96633.02;103959;1353;22566;-60
2021/12/05 09:51:36;;;;;;;;;;;;;;;1.27;76.52;96652.49;103956;1353;22540;-60
2021/12/05 10:16:20;;;;;;;;;;;;;;;1.42;77.08;96649.48;103945;1353;22554;-60
2021/12/05 10:27:14;;;;;;;;;;;;;;;1.22;77.14;96652.08;103894;1353;23363;-58
2021/12/05 10:38:45;;;;;;;;;;;;;;;1.05;78.27;96661.17;103951;1354;23417;-60
2021/12/05 10:41:35;;;;;;;;;;;;;;;1.01;78.78;96665.85;103969;1354;23257;-60
2021/12/05 10:44:11;;;;;;;;;;;;;;;0.94;78.76;96665.61;103959;1354;22596;-59
2021/12/05 10:46:46;;;;;;;;;;;;;;;0.94;79.09;96664.02;103907;1354;22600;-60
2021/12/05 10:49:18;;;;;;;;;;;;;;;0.91;80.33;96672.18;103952;1354;22539;-60
2021/12/05 10:51:55;;;;;;;;;;;;;;;0.85;80.35;96677.42;103973;1344;22636;-62
2021/12/05 10:54:28;;;;;;;;;;;;;;;0.83;80.94;96677.65;103982;1349;22713;-60
2021/12/05 10:56:59;;;;;;;;;;;;;;;0.78;80.22;96677.28;104002;1344;22511;-58
2021/12/05 10:59:36;;;;;;;;;;;;;;;0.79;80.25;96679.02;103987;1348;22563;-59
2021/12/05 11:02:06;;;;;;;;;;;;;;;0.83;81.26;96678.34;104018;1348;23345;-60
2021/12/05 11:04:39;;;;;;;;;;;;;;;0.82;81.00;96678.33;104002;1351;22970;-61
2021/12/05 11:07:18;;;;;;;;;;;;;;;0.81;81.12;96677.91;104037;1351;22644;-60
2021/12/05 11:09:57;;;;;;;;;;;;;;;0.81;81.56;96673.19;103987;1351;22553;-60
2021/12/05 11:12:27;;;;;;;;;;;;;;;0.83;81.77;96670.91;103996;1351;23371;-60
2021/12/05 11:14:57;;;;;;;;;;;;;;;0.85;81.43;96675.36;103976;1351;22828;-59
2021/12/05 11:17:27;;;;;;;;;;;;;;;0.86;82.00;96678.23;104017;1351;22671;-60
2021/12/05 11:20:18;;;;;;;;;;;;;;;0.88;82.66;96685.51;103958;1351;22636;-59
2021/12/05 11:22:50;;;;;;;;;;;;;;;0.89;83.16;96686.34;103846;1351;22657;-59
2021/12/05 11:25:25;;;;;;;;;;;;;;;0.89;82.10;96683.27;104009;1351;22725;-58
2021/12/05 11:28:01;;;;;;;;;;;;;;;0.94;82.62;96683.10;104022;1350;22740;-60
2021/12/05 11:30:31;;;;;;;;;;;;;;;0.96;83.19;96683.69;103895;1344;125085;-60
2021/12/05 11:33:03;;;;;;;;;;;;;;;0.97;83.17;96686.12;104027;1351;22532;-59
2021/12/05 11:35:42;;;;;;;;;;;;;;;0.98;83.07;96694.77;103979;1344;22493;-60
2021/12/05 11:38:14;;;;;;;;;;;;;;;0.99;83.36;96696.20;103972;1351;22717;-60
2021/12/05 11:40:49;;;;;;;;;;;;;;;0.97;83.34;96696.21;103963;1351;22896;-60
2021/12/05 11:43:23;;;;;;;;;;;;;;;0.98;83.82;96696.52;104006;1345;22620;-60
2021/12/05 11:46:00;;;;;;;;;;;;;;;0.98;84.09;96691.86;103992;1345;22537;-59
2021/12/05 11:48:39;;;;;;;;;;;;;;;0.97;83.99;96695.89;103959;1345;23543;-58
2021/12/05 11:51:28;;;;;;;;;;;;;;;0.98;84.00;96696.42;103859;1344;22763;-60
2021/12/05 11:54:03;;;;;;;;;;;;;;;0.99;84.02;96696.35;103993;1351;22654;-59
2021/12/05 11:56:36;;;;;;;;;;;;;;;1.01;83.92;96696.77;104000;1349;23127;-61
2021/12/05 11:59:09;;;;;;;;;;;;;;;1.05;84.32;96699.16;104007;1351;22561;-59
2021/12/05 12:01:46;;;;;;;;;;;;;;;1.05;84.41;96702.83;103904;1351;123930;-60
2021/12/05 12:04:18;;;;;;;;;;;;;;;1.05;83.75;96708.09;104014;1351;23313;-58
2021/12/05 12:07:09;;;;;;;;;;;;;;;1.11;84.40;96710.78;103992;1351;22670;-60
2021/12/05 12:09:40;;;;;;;;;;;;;;;1.12;83.53;96705.59;103994;1346;22699;-60
2021/12/05 12:12:21;;;;;;;;;;;;;;;1.14;83.90;96710.57;103987;1351;22640;-60
2021/12/05 12:14:55;;;;;;;;;;;;;;;1.16;83.97;96711.31;103979;1349;22631;-60
2021/12/05 12:17:28;;;;;;;;;;;;;;;1.20;84.65;96711.79;103744;1351;23343;-60
2021/12/05 12:20:05;;;;;;;;;;;;;;;1.18;84.33;96711.47;103676;1357;22552;-61
2021/12/05 12:22:42;;;;;;;;;;;;;;;1.18;84.71;96718.20;103656;1355;22695;-59
2021/12/05 12:25:19;;;;;;;;;;;;;;;1.19;85.13;96718.31;103585;1350;23295;-59
2021/12/05 12:27:50;;;;;;;;;;;;;;;1.20;85.54;96721.55;103665;1357;22505;-59
2021/12/05 12:30:25;;;;;;;;;;;;;;;1.17;85.02;96719.41;103661;1356;22593;-60
2021/12/05 12:33:08;;;;;;;;;;;;;;;1.17;84.37;96720.70;103691;1356;22541;-59
2021/12/05 12:35:49;;;;;;;;;;;;;;;1.21;85.10;96722.23;103715;1356;22550;-59
2021/12/05 12:38:22;;;;;;;;;;;;;;;1.24;85.05;96724.20;103684;1356;23539;-60
2021/12/05 12:40:55;;;;;;;;;;;;;;;1.24;84.99;96717.98;103706;1357;22538;-58
2021/12/05 12:43:42;;;;;;;;;;;;;;;1.21;84.90;96721.86;103685;1357;22672;-59
2021/12/05 12:46:16;;;;;;;;;;;;;;;1.22;84.86;96714.86;103671;1357;22547;-59
2021/12/05 12:48:44;;;;;;;;;;;;;;;1.26;84.72;96706.93;103717;1348;22704;-59
2021/12/05 12:51:29;;;;;;;;;;;;;;;1.29;84.49;96706.46;103980;1345;23366;-59
2021/12/05 12:54:01;;;;;;;;;;;;;;;1.28;84.98;96705.14;103974;1352;22659;-60
2021/12/05 12:56:30;;;;;;;;;;;;;;;1.27;84.66;96701.63;103977;1352;23368;-59
2021/12/05 12:59:01;;;;;;;;;;;;;;;1.29;84.36;96702.80;103964;1352;22615;-57
2021/12/05 13:04:34;;;;;;;;;;;;;;;1.32;84.62;96706.63;103988;1352;22635;-59
2021/12/05 13:10:08;;;;;;;;;;;;;;;1.28;84.58;96707.53;103982;1352;23334;-59
2021/12/05 13:12:44;;;;;;;;;;;;;;;1.31;84.49;96711.23;103975;1352;23274;-60
2021/12/05 13:15:16;;;;;;;;;;;;;;;1.33;84.60;96710.76;103972;1352;22600;-59
2021/12/05 13:17:46;;;;;;;;;;;;;;;1.32;84.50;96712.56;103974;1352;22616;-59
2021/12/05 13:20:16;;;;;;;;;;;;;;;1.31;84.87;96713.90;103959;1352;22688;-59
2021/12/05 13:23:03;;;;;;;;;;;;;;;1.25;84.79;96715.59;103982;1352;22665;-59
2021/12/05 13:25:32;;;;;;;;;;;;;;;1.25;84.77;96715.60;103950;1352;22726;-59
2021/12/05 13:28:39;;;;;;;;;;;;;;;1.27;84.81;96711.40;103977;1353;22704;-59
2021/12/05 13:31:26;;;;;;;;;;;;;;;1.26;84.73;96711.83;103642;1357;23477;-60
2021/12/05 13:34:12;;;;;;;;;;;;;;;1.26;84.74;96707.84;103626;1356;22513;-60
2021/12/05 13:36:41;;;;;;;;;;;;;;;1.26;84.41;96699.99;103669;1357;22767;-60
2021/12/05 13:39:27;;;;;;;;;;;;;;;1.26;84.43;96697.08;103642;1355;22643;-59
2021/12/05 13:41:59;;;;;;;;;;;;;;;1.28;84.51;96697.33;103617;1347;22673;-59
2021/12/05 13:44:47;;;;;;;;;;;;;;;1.31;84.80;96708.80;103636;1357;22624;-59
2021/12/05 13:47:16;;;;;;;;;;;;;;;1.32;84.76;96708.32;103670;1357;22783;-60
2021/12/05 13:49:47;;;;;;;;;;;;;;;1.33;84.86;96707.48;103638;1356;22573;-60
2021/12/05 13:52:29;;;;;;;;;;;;;;;1.30;85.08;96709.33;103645;1357;22937;-60
2021/12/05 13:55:15;;;;;;;;;;;;;;;1.31;85.30;96713.78;103648;1356;22543;-59
2021/12/05 13:58:09;;;;;;;;;;;;;;;1.31;85.29;96722.17;103638;1357;22640;-60
2021/12/05 14:00:42;;;;;;;;;;;;;;;1.30;84.91;96717.52;103634;1357;23151;-59
2021/12/05 14:03:10;;;;;;;;;;;;;;;1.28;84.54;96713.48;103956;1352;22753;-60
2021/12/05 14:05:46;;;;;;;;;;;;;;;1.30;84.45;96715.01;103965;1354;22639;-62
2021/12/05 14:08:14;;;;;;;;;;;;;;;1.37;84.64;96716.01;103953;1352;23139;-59
2021/12/05 14:10:43;;;;;;;;;;;;;;;1.40;84.88;96713.98;103982;1352;22486;-59
2021/12/05 14:13:11;;;;;;;;;;;;;;;1.38;85.20;96715.86;103958;1352;22629;-59
2021/12/05 14:15:40;;;;;;;;;;;;;;;1.32;85.30;96712.52;103984;1352;22550;-60
2021/12/05 14:18:17;;;;;;;;;;;;;;;1.30;85.06;96714.80;103986;1352;22560;-59
2021/12/05 14:20:46;;;;;;;;;;;;;;;1.30;84.95;96713.95;103982;1352;22544;-59
2021/12/05 14:23:20;;;;;;;;;;;;;;;1.32;85.33;96714.53;103955;1352;22650;-59
2021/12/05 14:25:49;;;;;;;;;;;;;;;1.29;85.01;96721.68;103962;1352;22652;-60
2021/12/05 14:28:19;;;;;;;;;;;;;;;1.26;85.00;96726.38;103964;1352;22566;-60
2021/12/05 14:30:48;;;;;;;;;;;;;;;1.25;85.48;96726.42;103965;1352;22550;-60
2021/12/05 14:33:16;;;;;;;;;;;;;;;1.24;85.78;96725.90;103949;1354;22503;-59
2021/12/05 14:35:44;;;;;;;;;;;;;;;1.20;85.64;96736.99;103970;1352;22659;-58
2021/12/05 14:38:15;;;;;;;;;;;;;;;1.18;85.23;96737.89;103953;1352;22660;-60
2021/12/05 14:40:43;;;;;;;;;;;;;;;1.18;84.97;96743.15;103980;1352;22602;-61
2021/12/05 14:43:12;;;;;;;;;;;;;;;1.20;85.27;96743.36;103954;1351;22682;-60
2021/12/05 14:45:41;;;;;;;;;;;;;;;1.22;85.54;96741.52;103969;1352;22644;-60
2021/12/05 14:48:10;;;;;;;;;;;;;;;1.18;85.34;96749.52;103976;1352;22487;-59
2021/12/05 14:50:51;;;;;;;;;;;;;;;1.17;85.41;96755.25;103966;1352;22617;-58
2021/12/05 14:53:22;;;;;;;;;;;;;;;1.17;85.22;96762.30;103951;1353;22654;-59
2021/12/05 14:55:56;;;;;;;;;;;;;;;1.19;84.99;96765.06;103941;1350;22597;-59
2021/12/05 14:58:27;;;;;;;;;;;;;;;1.21;85.16;96766.88;103846;1344;124692;-59
2021/12/05 15:00:57;;;;;;;;;;;;;;;1.21;85.24;96773.18;103986;1352;22640;-59
2021/12/05 15:03:27;;;;;;;;;;;;;;;1.22;85.02;96781.99;103999;1352;23365;-59
2021/12/05 15:05:58;;;;;;;;;;;;;;;1.25;84.77;96793.83;103962;1352;22621;-59
2021/12/05 15:08:29;;;;;;;;;;;;;;;1.29;84.86;96800.84;103971;1351;23242;-60
2021/12/05 15:10:58;;;;;;;;;;;;;;;1.29;85.20;96805.98;103935;1352;22715;-59
2021/12/05 15:13:27;;;;;;;;;;;;;;;1.27;84.77;96814.90;103845;1354;22677;-59
2021/12/05 15:15:57;;;;;;;;;;;;;;;1.26;84.66;96815.27;103880;1352;22666;-60
2021/12/05 15:18:29;;;;;;;;;;;;;;;1.27;84.68;96816.66;103951;1352;22531;-60
2021/12/05 15:20:57;;;;;;;;;;;;;;;1.33;84.58;96820.84;103971;1352;22739;-60
2021/12/05 15:23:27;;;;;;;;;;;;;;;1.36;84.61;96815.38;103952;1352;22521;-57
2021/12/05 15:25:58;;;;;;;;;;;;;;;1.36;84.80;96811.88;103981;1352;22534;-58
2021/12/05 15:28:26;;;;;;;;;;;;;;;1.31;84.96;96805.83;103999;1353;22571;-59
2021/12/05 15:30:54;;;;;;;;;;;;;;;1.30;84.72;96803.81;103894;1354;22704;-59
2021/12/05 15:33:25;;;;;;;;;;;;;;;1.34;84.90;96804.12;103972;1352;22507;-59
2021/12/05 15:35:56;;;;;;;;;;;;;;;1.38;85.01;96807.93;103967;1352;22542;-59
2021/12/05 15:38:27;;;;;;;;;;;;;;;1.38;85.08;96809.27;103998;1352;22641;-59
2021/12/05 15:40:58;;;;;;;;;;;;;;;1.37;85.10;96810.34;103972;1352;22668;-60
2021/12/05 15:43:26;;;;;;;;;;;;;;;1.32;85.04;96808.90;103978;1352;22597;-60
2021/12/05 15:45:55;;;;;;;;;;;;;;;1.33;85.00;96815.43;103959;1352;22509;-60
2021/12/05 15:48:27;;;;;;;;;;;;;;;1.37;84.73;96819.45;103991;1352;22774;-60
2021/12/05 15:50:58;;;;;;;;;;;;;;;1.40;84.84;96816.96;104000;1352;23320;-59
2021/12/05 15:53:26;;;;;;;;;;;;;;;1.42;84.84;96813.45;103973;1354;23386;-59
2021/12/05 15:55:58;;;;;;;;;;;;;;;1.45;84.91;96812.98;103957;1354;22587;-59
2021/12/05 15:58:46;;;;;;;;;;;;;;;1.48;84.79;96817.39;103962;1352;22568;-61
2021/12/05 16:01:18;;;;;;;;;;;;;;;1.48;84.61;96813.84;103963;1354;22618;-62
2021/12/05 16:03:46;;;;;;;;;;;;;;;1.48;84.72;96815.05;103968;1352;22529;-60
2021/12/05 16:06:16;;;;;;;;;;;;;;;1.54;84.62;96814.63;103983;1352;23369;-59
2021/12/05 16:08:46;;;;;;;;;;;;;;;1.62;84.50;96812.60;103988;1352;22654;-59
2021/12/05 16:11:15;;;;;;;;;;;;;;;1.67;84.33;96809.14;103991;1352;23394;-59
2021/12/05 16:13:44;;;;;;;;;;;;;;;1.75;84.26;96813.80;103973;1352;22624;-60
2021/12/05 16:16:14;;;;;;;;;;;;;;;1.79;84.25;96816.08;103969;1352;22655;-60
2021/12/05 16:18:43;;;;;;;;;;;;;;;1.77;84.14;96819.22;103973;1352;22662;-60
2021/12/05 16:21:19;;;;;;;;;;;;;;;1.76;84.35;96818.79;103967;1344;22689;-60
2021/12/05 16:23:48;;;;;;;;;;;;;;;1.76;84.31;96816.30;103990;1351;23339;-60
2021/12/05 16:26:20;;;;;;;;;;;;;;;1.80;84.09;96813.69;103962;1344;22670;-60
2021/12/05 16:28:49;;;;;;;;;;;;;;;1.85;84.07;96820.59;103970;1351;22683;-60
2021/12/05 16:31:36;;;;;;;;;;;;;;;1.85;84.04;96818.20;103978;1351;22563;-59
2021/12/05 16:34:07;;;;;;;;;;;;;;;1.83;84.09;96809.02;103984;1351;22609;-58
2021/12/05 16:36:41;;;;;;;;;;;;;;;1.84;84.19;96810.77;103972;1351;23300;-59
2021/12/05 16:39:14;;;;;;;;;;;;;;;1.81;84.37;96813.16;103985;1344;22775;-59
2021/12/05 16:41:50;;;;;;;;;;;;;;;1.80;84.27;96815.45;104004;1345;22734;-60
2021/12/05 16:44:20;;;;;;;;;;;;;;;1.80;84.41;96813.00;103965;1348;22643;-60
2021/12/05 16:46:55;;;;;;;;;;;;;;;1.86;84.36;96811.98;103961;1351;22798;-60
2021/12/05 16:49:42;;;;;;;;;;;;;;;1.92;84.26;96814.35;103980;1344;22612;-59
2021/12/05 16:52:15;;;;;;;;;;;;;;;1.99;84.28;96822.52;103984;1351;22524;-59
2021/12/05 16:54:51;;;;;;;;;;;;;;;2.07;83.99;96828.51;103932;1348;22651;-58
2021/12/05 16:57:28;;;;;;;;;;;;;;;2.12;84.02;96831.15;103974;1349;22634;-59
2021/12/05 17:00:00;;;;;;;;;;;;;;;2.16;84.07;96834.44;103959;1351;22690;-61
2021/12/05 17:02:32;;;;;;;;;;;;;;;2.14;83.64;96838.33;103975;1350;22803;-60
2021/12/05 17:05:07;;;;;;;;;;;;;;;2.12;83.96;96835.30;103976;1350;22529;-61
2021/12/05 17:07:44;;;;;;;;;;;;;;;2.12;83.98;96838.33;103992;1350;22655;-59
2021/12/05 17:10:21;;;;;;;;;;;;;;;2.09;83.95;96836.21;104000;1351;22783;-59
2021/12/05 17:12:50;;;;;;;;;;;;;;;2.08;83.77;96833.28;103984;1349;22535;-60
2021/12/05 17:15:24;;;;;;;;;;;;;;;2.06;83.84;96833.89;104020;1351;22682;-59
2021/12/05 17:18:00;;;;;;;;;;;;;;;2.06;83.74;96836.90;104008;1351;22650;-58
2021/12/05 17:20:29;;;;;;;;;;;;;;;2.09;84.02;96849.12;104034;1351;22676;-58
2021/12/05 17:23:03;;;;;;;;;;;;;;;2.13;84.06;96856.13;103992;1351;22719;-59
2021/12/05 17:25:35;;;;;;;;;;;;;;;2.17;84.16;96846.45;104018;1351;22498;-60
2021/12/05 17:28:05;;;;;;;;;;;;;;;2.20;84.00;96846.75;104017;1351;22636;-58
2021/12/05 17:30:34;;;;;;;;;;;;;;;2.19;83.95;96847.18;104019;1351;22596;-60
2021/12/05 17:33:03;;;;;;;;;;;;;;;2.12;83.62;96855.60;104013;1344;23268;-60
2021/12/05 17:35:31;;;;;;;;;;;;;;;2.09;83.75;96855.50;104009;1351;22537;-60
2021/12/05 17:37:59;;;;;;;;;;;;;;;2.08;83.62;96852.57;103994;1350;22524;-60
2021/12/05 17:40:32;;;;;;;;;;;;;;;2.07;83.59;96849.87;103993;1350;22638;-59
2021/12/05 17:43:00;;;;;;;;;;;;;;;2.03;83.57;96852.22;104006;1350;22656;-60
2021/12/05 17:45:28;;;;;;;;;;;;;;;1.96;83.63;96855.58;104021;1351;22509;-60